createdAt,value
2018-07-15T00:01:52.644Z,11.33
2018-07-15T00:04:21.415Z,9.60
2018-07-15T00:06:50.181Z,10.80
2018-07-15T00:09:19.022Z,11.53
2018-07-15T00:11:47.784Z,11.50
2018-07-15T00:14:16.451Z,11.77
2018-07-15T00:16:45.085Z,11.30
2018-07-15T00:19:13.738Z,11.20
2018-07-15T00:21:42.486Z,11.60
2018-07-15T00:24:11.164Z,11.10
2018-07-15T00:26:39.914Z,10.60
2018-07-15T00:29:08.657Z,10.73
2018-07-15T00:31:37.340Z,11.20
2018-07-15T00:34:06.071Z,10.07
2018-07-15T00:36:34.714Z,10.50
2018-07-15T00:39:03.530Z,10.13
2018-07-15T00:41:32.181Z,10.90
2018-07-15T00:44:00.828Z,11.50
2018-07-15T00:46:29.483Z,10.77
2018-07-15T00:48:58.162Z,10.67
2018-07-15T00:51:26.799Z,10.70
2018-07-15T00:53:55.237Z,11.37
2018-07-15T00:56:24.171Z,10.80
2018-07-15T00:58:52.880Z,11.37
2018-07-15T01:01:21.543Z,10.97
2018-07-15T01:03:50.290Z,11.07
2018-07-15T01:06:18.994Z,10.27
2018-07-15T01:08:47.702Z,10.77
2018-07-15T01:11:16.287Z,11.03
2018-07-15T01:13:44.867Z,11.87
2018-07-15T01:16:13.747Z,12.00
2018-07-15T01:18:42.381Z,11.10
2018-07-15T01:21:10.917Z,11.90
2018-07-15T01:23:39.569Z,11.50
2018-07-15T01:26:08.207Z,12.40
2018-07-15T01:28:36.797Z,10.47
2018-07-15T01:31:05.481Z,10.53
2018-07-15T01:33:34.096Z,12.77
2018-07-15T01:36:02.817Z,11.60
2018-07-15T01:38:31.582Z,12.20
2018-07-15T01:41:00.278Z,12.27
2018-07-15T01:43:28.955Z,12.70
2018-07-15T01:45:57.674Z,11.23
2018-07-15T01:48:26.396Z,12.03
2018-07-15T01:50:56.368Z,12.73
2018-07-15T01:53:25.131Z,12.97
2018-07-15T01:55:53.924Z,12.90
2018-07-15T01:58:22.562Z,14.27
2018-07-15T02:00:51.253Z,12.57
2018-07-15T02:03:19.939Z,11.40
2018-07-15T02:05:48.608Z,13.00
2018-07-15T02:08:17.198Z,13.20
2018-07-15T02:10:45.765Z,13.77
2018-07-15T02:13:14.406Z,13.10
2018-07-15T02:15:43.147Z,11.80
2018-07-15T02:18:11.855Z,12.47
2018-07-15T02:20:40.602Z,12.90
2018-07-15T02:23:09.338Z,13.63
2018-07-15T02:25:38.252Z,13.27
2018-07-15T02:28:06.979Z,13.40
2018-07-15T02:30:35.757Z,14.53
2018-07-15T02:33:04.612Z,14.17
2018-07-15T02:35:33.290Z,12.73
2018-07-15T02:38:03.257Z,12.90
2018-07-15T02:40:31.926Z,12.93
2018-07-15T02:43:00.604Z,13.20
2018-07-15T02:45:29.259Z,13.83
2018-07-15T02:47:57.920Z,13.40
2018-07-15T02:50:26.630Z,12.70
2018-07-15T02:52:55.278Z,13.07
2018-07-15T02:55:23.938Z,13.20
2018-07-15T02:57:52.646Z,12.97
2018-07-15T03:00:21.349Z,12.90
2018-07-15T03:02:49.967Z,12.90
2018-07-15T03:05:19.054Z,14.67
2018-07-15T03:07:47.753Z,12.90
2018-07-15T03:10:16.448Z,12.73
2018-07-15T03:12:45.084Z,13.00
2018-07-15T03:15:13.750Z,14.17
2018-07-15T03:17:42.414Z,13.03
2018-07-15T03:20:11.111Z,13.77
2018-07-15T03:22:39.725Z,13.47
2018-07-15T03:25:08.568Z,13.93
2018-07-15T03:27:37.336Z,13.30
2018-07-15T03:30:05.993Z,14.40
2018-07-15T03:32:34.641Z,13.80
2018-07-15T03:35:03.025Z,12.57
2018-07-15T03:37:31.694Z,11.60
2018-07-15T03:39:59.907Z,12.13
2018-07-15T03:42:28.648Z,11.53
2018-07-15T03:44:57.278Z,10.57
2018-07-15T03:47:26.043Z,10.60
2018-07-15T03:49:54.794Z,11.00
2018-07-15T03:52:23.427Z,11.93
2018-07-15T03:54:52.110Z,11.07
2018-07-15T03:57:20.746Z,12.13
2018-07-15T03:59:49.488Z,12.20
2018-07-15T04:02:18.163Z,11.70
2018-07-15T04:04:46.860Z,12.00
2018-07-15T04:07:15.548Z,12.30
2018-07-15T04:09:44.178Z,11.93
2018-07-15T04:12:12.798Z,12.10
2018-07-15T04:14:41.386Z,11.53
2018-07-15T04:17:13.132Z,11.50
2018-07-15T04:19:41.758Z,11.50
2018-07-15T04:22:10.436Z,12.70
2018-07-15T04:24:39.114Z,12.50
2018-07-15T04:27:07.850Z,12.60
2018-07-15T04:29:36.553Z,12.30
2018-07-15T04:32:05.341Z,11.73
2018-07-15T04:34:33.963Z,12.70
2018-07-15T04:37:02.690Z,11.50
2018-07-15T04:39:31.306Z,11.60
2018-07-15T04:41:59.920Z,11.53
2018-07-15T04:44:28.571Z,12.00
2018-07-15T04:46:56.833Z,10.53
2018-07-15T04:49:25.463Z,11.10
2018-07-15T04:51:54.131Z,11.73
2018-07-15T04:54:22.794Z,12.30
2018-07-15T04:56:51.583Z,11.30
2018-07-15T04:59:20.314Z,10.00
2018-07-15T05:01:48.930Z,10.60
2018-07-15T05:04:17.643Z,11.30
2018-07-15T05:06:46.318Z,10.07
2018-07-15T05:09:15.204Z,11.23
2018-07-15T05:11:59.609Z,10.30
2018-07-15T05:14:28.325Z,12.10
2018-07-15T05:16:57.008Z,12.20
2018-07-15T05:19:25.691Z,12.03
2018-07-15T05:21:54.362Z,12.10
2018-07-15T05:24:23.011Z,12.00
2018-07-15T05:26:58.797Z,12.10
2018-07-15T05:29:27.385Z,11.80
2018-07-15T05:31:56.092Z,12.10
2018-07-15T05:34:24.866Z,10.97
2018-07-15T05:36:53.656Z,11.40
2018-07-15T05:39:22.310Z,11.67
2018-07-15T05:41:51.041Z,11.90
2018-07-15T05:44:19.783Z,10.80
2018-07-15T05:47:09.098Z,11.27
2018-07-15T05:49:37.825Z,10.90
2018-07-15T05:52:06.519Z,10.43
2018-07-15T05:54:43.291Z,10.30
2018-07-15T06:00:18.236Z,10.80
2018-07-15T06:02:46.860Z,10.47
2018-07-15T06:05:15.507Z,9.33
2018-07-15T06:08:00.360Z,9.60
2018-07-15T06:10:29.043Z,8.70
2018-07-15T06:12:57.854Z,8.63
2018-07-15T06:15:28.634Z,9.30
2018-07-15T06:18:01.044Z,8.67
2018-07-15T06:20:30.431Z,8.87
2018-07-15T06:23:00.363Z,8.70
2018-07-15T06:25:28.993Z,7.63
2018-07-15T06:27:57.960Z,8.20
2018-07-15T06:30:26.572Z,9.20
2018-07-15T06:32:55.211Z,8.47
2018-07-15T06:35:23.897Z,10.00
2018-07-15T06:37:52.596Z,9.53
2018-07-15T06:40:21.335Z,9.60
2018-07-15T06:42:50.737Z,8.50
2018-07-15T06:45:19.367Z,8.37
2018-07-15T06:47:48.650Z,8.80
2018-07-15T06:50:17.357Z,7.23
2018-07-15T06:52:46.039Z,8.17
2018-07-15T06:55:14.690Z,6.80
2018-07-15T06:57:43.281Z,6.90
2018-07-15T07:00:11.949Z,7.10
2018-07-15T07:02:40.567Z,6.90
2018-07-15T07:05:09.198Z,6.90
2018-07-15T07:07:37.815Z,7.27
2018-07-15T07:10:06.450Z,7.30
2018-07-15T07:12:35.089Z,7.13
2018-07-15T07:15:10.723Z,7.20
2018-07-15T07:17:39.522Z,7.03
2018-07-15T07:20:08.217Z,6.93
2018-07-15T07:22:37.702Z,7.27
2018-07-15T07:28:18.230Z,6.80
2018-07-15T07:30:46.897Z,7.20
2018-07-15T07:33:15.618Z,6.67
2018-07-15T07:35:44.700Z,7.00
2018-07-15T07:38:17.662Z,6.50
2018-07-15T07:40:46.669Z,6.87
2018-07-15T07:43:23.629Z,6.30
2018-07-15T07:45:52.413Z,6.00
2018-07-15T07:48:21.043Z,6.30
2018-07-15T07:50:50.248Z,6.17
2018-07-15T07:56:16.146Z,5.90
2018-07-15T07:58:44.783Z,5.33
2018-07-15T08:01:13.892Z,5.20
2018-07-15T08:03:42.582Z,5.40
2018-07-15T08:06:11.246Z,5.67
2018-07-15T08:08:39.922Z,5.53
2018-07-15T08:11:08.636Z,5.07
2018-07-15T08:13:37.242Z,5.40
2018-07-15T08:16:06.032Z,5.40
2018-07-15T08:18:34.684Z,6.23
2018-07-15T08:21:05.395Z,5.00
2018-07-15T08:23:36.188Z,4.87
2018-07-15T08:26:04.872Z,4.90
2018-07-15T08:28:33.680Z,5.20
2018-07-15T08:31:21.310Z,4.90
2018-07-15T08:33:49.982Z,4.97
2018-07-15T08:36:36.995Z,4.50
2018-07-15T08:39:07.027Z,4.20
2018-07-15T08:41:35.806Z,4.30
2018-07-15T08:44:04.440Z,4.80
2018-07-15T08:46:33.146Z,4.40
2018-07-15T08:49:01.820Z,4.40
2018-07-15T08:51:30.499Z,4.27
2018-07-15T08:53:59.170Z,4.30
2018-07-15T08:56:27.856Z,4.67
2018-07-15T08:58:56.490Z,4.30
2018-07-15T09:01:24.810Z,4.50
2018-07-15T09:03:53.498Z,5.10
2018-07-15T09:06:27.757Z,4.37
2018-07-15T09:08:56.418Z,5.00
2018-07-15T09:11:25.010Z,4.57
2018-07-15T09:13:53.913Z,4.00
2018-07-15T09:16:25.702Z,3.70
2018-07-15T09:18:54.341Z,3.87
2018-07-15T09:21:22.959Z,4.10
2018-07-15T09:23:51.995Z,4.43
2018-07-15T09:26:20.562Z,4.30
2018-07-15T09:28:49.938Z,4.47
2018-07-15T09:31:18.584Z,4.00
2018-07-15T09:33:47.200Z,4.40
2018-07-15T09:36:16.513Z,4.23
2018-07-15T09:38:45.084Z,4.53
2018-07-15T09:41:13.305Z,4.07
2018-07-15T09:43:41.871Z,4.07
2018-07-15T09:46:10.470Z,3.90
2018-07-15T09:48:39.134Z,3.90
2018-07-15T09:51:07.792Z,4.40
2018-07-15T09:53:36.550Z,4.90
2018-07-15T09:56:05.267Z,4.93
2018-07-15T09:58:33.602Z,5.10
2018-07-15T10:01:02.401Z,5.20
2018-07-15T10:03:31.164Z,5.30
2018-07-15T10:06:01.102Z,8.10
2018-07-15T10:08:29.757Z,5.27
2018-07-15T10:10:58.452Z,6.03
2018-07-15T10:13:27.051Z,6.40
2018-07-15T10:15:55.683Z,8.37
2018-07-15T10:18:25.286Z,5.70
2018-07-15T10:20:59.964Z,5.50
2018-07-15T10:23:28.663Z,18.00
2018-07-15T10:26:04.058Z,6.03
2018-07-15T10:28:33.067Z,5.57
2018-07-15T10:31:01.842Z,5.70
2018-07-15T10:33:30.521Z,5.73
2018-07-15T10:35:59.318Z,5.43
2018-07-15T10:38:28.026Z,5.13
2018-07-15T10:40:56.731Z,5.10
2018-07-15T10:43:25.448Z,4.70
2018-07-15T10:45:58.230Z,4.13
2018-07-15T10:48:26.909Z,3.47
2018-07-15T10:50:55.599Z,3.40
2018-07-15T10:53:26.292Z,2.93
2018-07-15T10:56:03.160Z,3.10
2018-07-15T10:58:51.667Z,3.50
2018-07-15T11:01:38.296Z,3.00
2018-07-15T11:04:16.536Z,3.30
2018-07-15T11:06:49.268Z,3.07
2018-07-15T11:09:17.858Z,3.00
2018-07-15T11:11:46.492Z,3.17
2018-07-15T11:14:31.282Z,3.50
2018-07-15T11:17:00.004Z,3.00
2018-07-15T11:19:35.460Z,3.80
2018-07-15T11:22:04.330Z,3.43
2018-07-15T11:24:33.016Z,3.60
2018-07-15T11:27:12.296Z,3.70
2018-07-15T11:29:42.974Z,3.20
2018-07-15T11:32:11.631Z,3.50
2018-07-15T11:34:40.246Z,4.03
2018-07-15T11:37:13.114Z,4.97
2018-07-15T11:39:41.773Z,5.60
2018-07-15T11:42:10.468Z,6.80
2018-07-15T11:44:39.165Z,4.30
2018-07-15T11:47:07.858Z,4.80
2018-07-15T11:52:47.685Z,5.30
2018-07-15T11:55:16.310Z,5.60
2018-07-15T11:57:47.202Z,5.67
2018-07-15T12:00:15.814Z,5.27
2018-07-15T12:02:46.942Z,5.57
2018-07-15T12:05:15.577Z,5.17
2018-07-15T12:07:44.264Z,4.90
2018-07-15T12:10:12.925Z,5.03
2018-07-15T12:12:43.674Z,5.00
2018-07-15T12:15:12.360Z,4.93
2018-07-15T12:17:40.962Z,5.20
2018-07-15T12:20:09.614Z,5.00
2018-07-15T12:22:38.322Z,5.50
2018-07-15T12:25:07.053Z,5.30
2018-07-15T12:27:38.627Z,4.00
2018-07-15T12:30:07.446Z,4.60
2018-07-15T12:32:35.766Z,4.40
2018-07-15T12:35:04.423Z,4.57
2018-07-15T12:37:33.062Z,4.80
2018-07-15T12:40:20.479Z,3.90
2018-07-15T12:42:49.029Z,3.33
2018-07-15T12:45:17.799Z,3.30
2018-07-15T12:47:46.683Z,3.97
2018-07-15T12:50:15.430Z,4.20
2018-07-15T12:52:44.179Z,4.07
2018-07-15T12:55:19.205Z,4.40
2018-07-15T12:57:47.957Z,5.00
2018-07-15T13:00:16.824Z,5.10
2018-07-15T13:02:47.897Z,5.00
2018-07-15T13:05:16.569Z,5.50
2018-07-15T13:08:04.942Z,5.03
2018-07-15T13:10:37.032Z,5.30
2018-07-15T13:13:08.098Z,5.27
2018-07-15T13:15:36.765Z,5.90
2018-07-15T13:18:13.569Z,5.57
2018-07-15T13:20:50.463Z,5.67
2018-07-15T13:23:19.176Z,5.80
2018-07-15T13:25:47.902Z,5.77
2018-07-15T13:28:16.679Z,5.80
2018-07-15T13:30:45.372Z,6.10
2018-07-15T13:33:14.101Z,6.27
2018-07-15T13:35:42.803Z,6.13
2018-07-15T13:38:11.510Z,5.80
2018-07-15T13:40:40.201Z,6.03
2018-07-15T13:43:08.841Z,5.70
2018-07-15T13:45:38.055Z,5.90
2018-07-15T13:48:06.658Z,6.13
2018-07-15T13:50:35.453Z,5.33
2018-07-15T13:53:06.297Z,5.40
2018-07-15T13:55:34.956Z,6.00
2018-07-15T13:58:03.606Z,5.43
2018-07-15T14:00:32.395Z,13.87
2018-07-15T14:03:01.041Z,9.30
2018-07-15T14:05:29.691Z,6.90
2018-07-15T14:07:58.366Z,5.90
2018-07-15T14:10:27.007Z,8.87
2018-07-15T14:12:55.672Z,8.07
2018-07-15T14:15:24.431Z,7.13
2018-07-15T14:17:53.619Z,5.93
2018-07-15T14:20:21.978Z,5.93
2018-07-15T14:22:50.719Z,4.93
2018-07-15T14:25:19.546Z,5.57
2018-07-15T14:27:48.312Z,5.93
2018-07-15T14:30:17.029Z,5.13
2018-07-15T14:32:45.990Z,5.23
2018-07-15T14:35:14.667Z,5.00
2018-07-15T14:37:47.434Z,5.20
2018-07-15T14:40:16.159Z,4.87
2018-07-15T14:42:44.824Z,5.40
2018-07-15T14:45:13.714Z,4.47
2018-07-15T14:47:42.672Z,4.40
2018-07-15T14:50:27.242Z,5.00
2018-07-15T14:52:59.106Z,4.90
2018-07-15T14:55:27.963Z,4.60
2018-07-15T14:57:56.686Z,5.27
2018-07-15T15:00:25.381Z,5.33
2018-07-15T15:02:54.345Z,4.70
2018-07-15T15:05:23.021Z,5.20
2018-07-15T15:07:53.339Z,4.50
2018-07-15T15:10:22.358Z,5.23
2018-07-15T15:12:51.168Z,4.23
2018-07-15T15:15:22.081Z,4.77
2018-07-15T15:17:52.781Z,4.30
2018-07-15T15:23:14.084Z,4.10
2018-07-15T15:25:44.886Z,4.13
2018-07-15T15:28:13.462Z,3.70
2018-07-15T15:30:42.062Z,3.60
2018-07-15T15:33:10.656Z,3.60
2018-07-15T15:35:39.298Z,4.33
2018-07-15T15:38:07.979Z,3.53
2018-07-15T15:40:36.644Z,3.60
2018-07-15T15:43:08.363Z,3.47
2018-07-15T15:45:37.022Z,3.30
2018-07-15T15:51:08.686Z,3.43
2018-07-15T15:53:37.345Z,3.40
2018-07-15T15:56:06.041Z,3.93
2018-07-15T15:58:36.329Z,3.50
2018-07-15T16:01:05.020Z,4.07
2018-07-15T16:03:33.719Z,3.80
2018-07-15T16:06:02.459Z,4.43
2018-07-15T16:08:31.152Z,4.63
2018-07-15T16:10:59.825Z,4.93
2018-07-15T16:13:28.522Z,4.37
2018-07-15T16:15:57.217Z,4.50
2018-07-15T16:18:26.926Z,4.30
2018-07-15T16:20:55.975Z,4.40
2018-07-15T16:23:24.570Z,4.03
2018-07-15T16:25:53.250Z,4.40
2018-07-15T16:28:21.954Z,4.63
2018-07-15T16:30:51.783Z,4.37
2018-07-15T16:33:22.874Z,4.57
2018-07-15T16:35:51.553Z,4.23
2018-07-15T16:38:20.169Z,4.70
2018-07-15T16:40:48.952Z,4.33
2018-07-15T16:43:17.358Z,4.13
2018-07-15T16:45:46.118Z,3.90
2018-07-15T16:48:14.785Z,4.50
2018-07-15T16:50:43.530Z,4.50
2018-07-15T16:53:12.190Z,4.03
2018-07-15T16:55:40.947Z,3.70
2018-07-15T16:58:10.699Z,4.10
2018-07-15T17:00:39.395Z,3.33
2018-07-15T17:03:08.958Z,3.60
2018-07-15T17:05:37.594Z,3.70
2018-07-15T17:08:06.306Z,3.43
2018-07-15T17:10:35.131Z,3.80
2018-07-15T17:13:03.895Z,3.17
2018-07-15T17:15:32.562Z,3.37
2018-07-15T17:18:01.199Z,3.30
2018-07-15T17:20:30.911Z,4.00
2018-07-15T17:22:59.177Z,3.37
2018-07-15T17:25:27.949Z,3.50
2018-07-15T17:27:56.934Z,3.47
2018-07-15T17:30:25.617Z,3.43
2018-07-15T17:32:54.425Z,3.30
2018-07-15T17:35:23.862Z,3.03
2018-07-15T17:37:57.575Z,3.40
2018-07-15T17:40:26.403Z,3.43
2018-07-15T17:42:55.031Z,3.70
2018-07-15T17:45:23.825Z,3.30
2018-07-15T17:53:58.703Z,4.10
2018-07-15T17:56:27.564Z,3.80
2018-07-15T17:58:56.258Z,3.60
2018-07-15T18:01:25.174Z,3.80
2018-07-15T18:03:54.444Z,3.90
2018-07-15T18:06:25.220Z,3.90
2018-07-15T18:08:53.987Z,4.43
2018-07-15T18:11:24.779Z,4.20
2018-07-15T18:13:53.406Z,4.30
2018-07-15T18:16:22.148Z,4.43
2018-07-15T18:18:50.774Z,4.43
2018-07-15T18:21:19.506Z,4.03
2018-07-15T18:23:48.173Z,4.50
2018-07-15T18:26:16.968Z,4.20
2018-07-15T18:28:45.604Z,4.83
2018-07-15T18:31:14.303Z,4.37
2018-07-15T18:33:42.979Z,4.60
2018-07-15T18:36:17.564Z,4.53
2018-07-15T18:38:47.078Z,4.70
2018-07-15T18:41:28.762Z,4.37
2018-07-15T18:47:03.697Z,4.60
2018-07-15T18:49:32.389Z,4.20
2018-07-15T18:52:01.103Z,4.37
2018-07-15T18:54:35.545Z,4.60
2018-07-15T18:57:08.680Z,4.60
2018-07-15T18:59:40.405Z,4.60
2018-07-15T19:02:09.105Z,4.90
2018-07-15T19:07:30.658Z,4.33
2018-07-15T19:13:03.710Z,4.77
2018-07-15T19:15:43.345Z,4.93
2018-07-15T19:18:12.224Z,4.77
2018-07-15T19:20:41.502Z,4.40
2018-07-15T19:23:10.335Z,4.60
2018-07-15T19:25:39.012Z,4.50
2018-07-15T19:28:07.936Z,4.90
2018-07-15T19:30:36.653Z,4.63
2018-07-15T19:33:05.490Z,4.60
2018-07-15T19:35:35.357Z,4.77
2018-07-15T19:38:04.147Z,5.07
2018-07-15T19:40:32.898Z,4.63
2018-07-15T19:43:01.597Z,4.50
2018-07-15T19:45:30.514Z,4.37
2018-07-15T19:47:59.219Z,4.50
2018-07-15T19:50:28.119Z,4.50
2018-07-15T19:52:56.750Z,4.80
2018-07-15T19:55:25.433Z,5.60
2018-07-15T19:57:54.095Z,5.50
2018-07-15T20:00:22.849Z,5.13
2018-07-15T20:02:51.498Z,4.90
2018-07-15T20:05:21.454Z,5.47
2018-07-15T20:07:50.175Z,4.60
2018-07-15T20:10:18.888Z,4.97
2018-07-15T20:12:47.584Z,4.87
2018-07-15T20:15:16.422Z,4.70
2018-07-15T20:17:45.192Z,4.63
2018-07-15T20:20:14.810Z,4.63
2018-07-15T20:22:43.515Z,4.50
2018-07-15T20:25:12.272Z,5.23
2018-07-15T20:27:40.927Z,4.77
2018-07-15T20:30:09.640Z,5.30
2018-07-15T20:32:38.434Z,5.70
2018-07-15T20:35:06.808Z,5.03
2018-07-15T20:37:35.554Z,5.17
2018-07-15T20:40:04.226Z,4.87
2018-07-15T20:42:33.998Z,4.73
2018-07-15T20:45:02.759Z,5.07
2018-07-15T20:47:33.443Z,4.90
2018-07-15T20:50:02.217Z,5.07
2018-07-15T20:52:30.890Z,5.13
2018-07-15T20:55:01.705Z,5.60
2018-07-15T20:57:30.457Z,5.20
2018-07-15T20:59:59.378Z,5.50
2018-07-15T21:08:13.483Z,5.23
2018-07-15T21:10:41.775Z,4.77
2018-07-15T21:13:10.426Z,5.67
2018-07-15T21:15:39.116Z,4.57
2018-07-15T21:26:48.243Z,5.63
2018-07-15T21:29:16.884Z,5.37
2018-07-15T21:31:45.591Z,5.60
2018-07-15T21:34:14.232Z,5.97
2018-07-15T21:36:42.827Z,5.90
2018-07-15T21:39:13.657Z,6.20
2018-07-15T21:41:42.334Z,5.90
2018-07-15T21:44:10.897Z,5.87
2018-07-15T21:46:39.520Z,5.87
2018-07-15T21:49:08.093Z,5.87
2018-07-15T21:51:36.821Z,5.90
2018-07-15T21:54:05.749Z,5.60
2018-07-15T21:56:34.479Z,5.87
2018-07-15T21:59:03.302Z,5.40
2018-07-15T22:01:40.930Z,5.27
2018-07-15T22:04:10.846Z,5.97
2018-07-15T22:06:50.821Z,5.80
2018-07-15T22:09:30.964Z,5.63
2018-07-15T22:12:00.309Z,6.00
2018-07-15T22:14:28.978Z,5.53
2018-07-15T22:16:57.159Z,5.60
2018-07-15T22:19:25.752Z,5.77
2018-07-15T22:21:55.426Z,6.17
2018-07-15T22:24:26.193Z,5.97
2018-07-15T22:26:54.843Z,5.43
2018-07-15T22:29:23.432Z,5.83
2018-07-15T22:31:52.099Z,5.97
2018-07-15T22:34:20.770Z,5.83
2018-07-15T22:36:49.926Z,6.13
2018-07-15T22:39:18.663Z,6.50
2018-07-15T22:41:47.278Z,5.50
2018-07-15T22:44:16.930Z,6.10
2018-07-15T22:46:45.654Z,5.77
2018-07-15T22:49:14.280Z,5.70
2018-07-15T22:51:43.121Z,5.63
2018-07-15T22:54:13.572Z,5.77
2018-07-15T22:56:42.559Z,5.87
2018-07-15T22:59:11.201Z,5.73
2018-07-15T23:01:40.097Z,5.30
2018-07-15T23:04:08.824Z,5.93
2018-07-15T23:06:38.095Z,5.97
2018-07-15T23:12:24.078Z,5.97
2018-07-15T23:14:52.722Z,6.20
2018-07-15T23:17:21.907Z,6.40
2018-07-15T23:19:50.613Z,6.10
2018-07-15T23:22:19.281Z,6.20
2018-07-15T23:24:47.832Z,7.10
2018-07-15T23:27:16.546Z,6.67
2018-07-15T23:29:45.162Z,6.50
2018-07-15T23:32:13.422Z,6.43
2018-07-15T23:34:42.098Z,6.53
2018-07-15T23:37:10.712Z,7.10
2018-07-15T23:39:39.366Z,6.87
2018-07-15T23:42:08.002Z,6.73
2018-07-15T23:44:36.662Z,6.90
2018-07-15T23:47:05.233Z,7.40
2018-07-15T23:49:33.827Z,6.63
2018-07-15T23:52:02.528Z,6.20
2018-07-15T23:54:31.217Z,6.03
2018-07-15T23:56:59.874Z,6.07
2018-07-15T23:59:28.458Z,6.20
